createdAt,value
2017-12-26T00:01:00.186Z,99.10
2017-12-26T00:04:10.270Z,99.00
2017-12-26T00:07:20.093Z,99.50
2017-12-26T00:10:31.457Z,98.50
2017-12-26T00:13:41.666Z,98.40
2017-12-26T00:16:51.449Z,98.50
2017-12-26T00:20:01.998Z,97.90
2017-12-26T00:23:12.296Z,98.00
2017-12-26T00:26:22.904Z,98.20
2017-12-26T00:29:33.032Z,98.50
2017-12-26T00:32:43.643Z,98.70
2017-12-26T00:35:54.854Z,98.20
2017-12-26T00:39:04.229Z,98.10
2017-12-26T00:42:14.580Z,98.00
2017-12-26T00:45:24.432Z,97.60
2017-12-26T00:48:34.209Z,97.60
2017-12-26T00:51:44.127Z,97.10
2017-12-26T00:54:55.646Z,97.60
2017-12-26T00:58:06.961Z,97.60
2017-12-26T01:01:17.932Z,97.80
2017-12-26T01:04:27.961Z,97.80
2017-12-26T01:07:38.576Z,97.40
2017-12-26T01:10:49.436Z,96.30
2017-12-26T01:13:59.649Z,96.40
2017-12-26T01:17:10.510Z,96.40
2017-12-26T01:20:20.893Z,96.40
2017-12-26T01:23:31.737Z,96.00
2017-12-26T01:26:42.683Z,95.90
2017-12-26T01:29:52.748Z,95.90
2017-12-26T01:33:02.942Z,96.00
2017-12-26T01:36:13.361Z,95.00
2017-12-26T01:39:24.500Z,95.30
2017-12-26T01:42:34.614Z,95.10
2017-12-26T01:45:46.005Z,95.70
2017-12-26T01:48:55.553Z,95.70
2017-12-26T01:52:05.572Z,95.30
2017-12-26T01:55:15.585Z,95.10
2017-12-26T01:58:25.330Z,94.40
2017-12-26T02:01:36.198Z,94.50
2017-12-26T02:04:46.944Z,94.80
2017-12-26T02:07:56.990Z,94.80
2017-12-26T02:11:07.695Z,94.90
2017-12-26T02:14:18.349Z,94.50
2017-12-26T02:17:28.563Z,94.50
2017-12-26T02:20:39.147Z,94.70
2017-12-26T02:23:49.994Z,94.70
2017-12-26T02:27:00.260Z,94.70
2017-12-26T02:30:10.085Z,95.30
2017-12-26T02:33:19.901Z,95.90
2017-12-26T02:36:29.712Z,96.10
2017-12-26T02:39:39.799Z,95.80
2017-12-26T02:42:49.661Z,95.70
2017-12-26T02:45:59.820Z,96.30
2017-12-26T02:49:10.551Z,96.50
2017-12-26T02:52:20.287Z,96.50
2017-12-26T02:55:30.922Z,96.50
2017-12-26T02:58:41.020Z,96.50
2017-12-26T03:01:50.814Z,96.60
2017-12-26T03:05:02.119Z,96.80
2017-12-26T03:08:12.067Z,96.80
2017-12-26T03:11:22.013Z,96.90
2017-12-26T03:14:31.889Z,97.00
2017-12-26T03:17:41.723Z,97.40
2017-12-26T03:20:51.710Z,97.90
2017-12-26T03:24:01.877Z,97.50
2017-12-26T03:27:12.244Z,97.70
2017-12-26T03:30:22.274Z,98.20
2017-12-26T03:33:32.286Z,97.80
2017-12-26T03:36:42.312Z,98.20
2017-12-26T03:39:52.333Z,98.10
2017-12-26T03:43:03.287Z,98.10
2017-12-26T03:46:13.406Z,98.00
2017-12-26T03:49:23.553Z,97.90
2017-12-26T03:52:34.315Z,97.00
2017-12-26T03:55:44.714Z,97.00
2017-12-26T03:58:55.402Z,97.20
2017-12-26T04:02:06.506Z,97.40
2017-12-26T04:05:16.938Z,97.40
2017-12-26T04:08:27.545Z,97.00
2017-12-26T04:11:37.824Z,97.40
2017-12-26T04:14:47.569Z,97.40
2017-12-26T04:17:57.407Z,97.50
2017-12-26T04:21:07.528Z,97.90
2017-12-26T04:24:17.997Z,98.20
2017-12-26T04:27:28.143Z,98.10
2017-12-26T04:30:39.112Z,98.10
2017-12-26T04:33:50.051Z,98.30
2017-12-26T04:37:00.507Z,98.30
2017-12-26T04:40:10.190Z,98.50
2017-12-26T04:43:20.866Z,98.60
2017-12-26T04:46:31.060Z,98.50
2017-12-26T04:49:41.084Z,98.70
2017-12-26T04:52:51.422Z,98.80
2017-12-26T04:56:01.648Z,98.90
2017-12-26T04:59:11.442Z,98.70
2017-12-26T05:02:21.496Z,98.70
2017-12-26T05:05:31.324Z,98.70
2017-12-26T05:08:41.403Z,98.80
2017-12-26T05:11:51.991Z,98.70
2017-12-26T05:15:02.082Z,98.50
2017-12-26T05:18:11.730Z,98.70
2017-12-26T05:21:22.420Z,98.90
2017-12-26T05:24:33.247Z,98.60
2017-12-26T05:27:43.481Z,98.50
2017-12-26T05:30:53.240Z,99.10
2017-12-26T05:34:03.077Z,98.50
2017-12-26T05:37:13.062Z,98.70
2017-12-26T05:40:23.344Z,98.70
2017-12-26T05:43:33.701Z,98.80
2017-12-26T05:46:43.655Z,98.80
2017-12-26T05:49:53.493Z,98.60
2017-12-26T05:53:03.515Z,98.70
2017-12-26T05:56:13.864Z,98.70
2017-12-26T05:59:23.655Z,98.20
2017-12-26T06:02:34.650Z,98.00
2017-12-26T06:05:46.708Z,98.40
2017-12-26T06:08:57.374Z,97.90
2017-12-26T06:12:07.023Z,98.00
2017-12-26T06:15:17.346Z,98.00
2017-12-26T06:18:27.224Z,98.20
2017-12-26T06:21:37.210Z,98.10
2017-12-26T06:24:48.177Z,97.90
2017-12-26T06:27:58.952Z,97.50
2017-12-26T06:31:09.056Z,97.50
2017-12-26T06:34:19.443Z,97.80
2017-12-26T06:37:29.183Z,98.20
2017-12-26T06:40:39.883Z,98.00
2017-12-26T06:43:49.867Z,98.00
2017-12-26T06:47:01.430Z,97.90
2017-12-26T06:50:11.424Z,97.80
2017-12-26T06:53:22.235Z,98.20
2017-12-26T06:56:33.302Z,97.90
2017-12-26T06:59:43.999Z,97.90
2017-12-26T07:02:54.754Z,97.70
2017-12-26T07:06:05.498Z,97.90
2017-12-26T07:09:15.522Z,97.80
2017-12-26T07:12:25.301Z,98.10
2017-12-26T07:15:35.291Z,98.20
2017-12-26T07:18:45.082Z,98.70
2017-12-26T07:22:01.376Z,98.60
2017-12-26T07:25:11.339Z,98.10
2017-12-26T07:28:21.056Z,98.30
2017-12-26T07:31:31.229Z,98.50
2017-12-26T07:34:41.035Z,98.80
2017-12-26T07:37:51.774Z,99.00
2017-12-26T07:41:01.973Z,99.30
2017-12-26T07:44:12.674Z,99.50
2017-12-26T07:47:22.639Z,99.40
2017-12-26T07:50:32.554Z,99.60
2017-12-26T07:53:43.557Z,99.10
2017-12-26T07:56:53.558Z,99.00
2017-12-26T08:00:03.640Z,99.00
2017-12-26T08:03:14.431Z,99.00
2017-12-26T08:06:25.384Z,99.10
2017-12-26T08:09:35.679Z,99.00
2017-12-26T08:12:48.120Z,99.40
2017-12-26T08:15:58.979Z,99.90
2017-12-26T08:19:12.789Z,99.90
2017-12-26T08:22:25.206Z,99.90
2017-12-26T08:25:37.185Z,99.90
2017-12-26T08:28:48.855Z,99.90
2017-12-26T08:31:59.017Z,99.90
2017-12-26T08:35:09.479Z,99.90
2017-12-26T08:38:23.186Z,99.90
2017-12-26T08:41:33.208Z,99.90
2017-12-26T08:44:43.322Z,99.90
2017-12-26T08:47:53.904Z,99.90
2017-12-26T08:51:05.320Z,99.90
2017-12-26T08:54:17.475Z,99.90
2017-12-26T08:57:29.280Z,99.90
2017-12-26T09:00:40.514Z,99.90
2017-12-26T09:03:50.860Z,99.90
2017-12-26T09:07:01.577Z,99.90
2017-12-26T09:10:12.339Z,99.90
2017-12-26T09:13:25.424Z,99.90
2017-12-26T09:16:38.259Z,99.90
2017-12-26T09:19:49.478Z,99.90
2017-12-26T09:22:59.891Z,99.90
2017-12-26T09:26:09.837Z,99.90
2017-12-26T09:29:20.606Z,99.90
2017-12-26T09:32:30.841Z,99.90
2017-12-26T09:35:41.600Z,99.90
2017-12-26T09:38:51.355Z,99.90
2017-12-26T09:42:01.341Z,99.90
2017-12-26T09:45:12.832Z,99.90
2017-12-26T09:48:23.377Z,99.90
2017-12-26T09:51:34.138Z,99.90
2017-12-26T09:54:45.094Z,99.90
2017-12-26T09:57:55.631Z,99.90
2017-12-26T10:01:07.453Z,99.90
2017-12-26T10:04:18.074Z,99.80
2017-12-26T10:07:28.301Z,99.70
2017-12-26T10:10:38.813Z,98.90
2017-12-26T10:13:48.946Z,98.80
2017-12-26T10:16:58.802Z,98.10
2017-12-26T10:20:10.744Z,98.10
2017-12-26T10:23:21.498Z,98.10
2017-12-26T10:26:32.298Z,98.20
2017-12-26T10:29:43.291Z,98.30
2017-12-26T10:32:53.507Z,97.90
2017-12-26T10:36:03.339Z,97.60
2017-12-26T10:39:13.899Z,97.70
2017-12-26T10:42:24.755Z,97.40
2017-12-26T10:45:35.615Z,97.40
2017-12-26T10:48:46.282Z,97.30
2017-12-26T10:51:57.221Z,96.50
2017-12-26T10:55:08.037Z,96.50
2017-12-26T10:58:18.339Z,96.90
2017-12-26T11:01:28.479Z,96.60
2017-12-26T11:04:39.157Z,96.00
2017-12-26T11:07:49.743Z,96.00
2017-12-26T11:11:01.022Z,95.70
2017-12-26T11:14:11.435Z,95.40
2017-12-26T11:17:23.203Z,95.50
2017-12-26T11:20:33.275Z,95.50
2017-12-26T11:23:43.400Z,95.20
2017-12-26T11:26:54.959Z,94.40
2017-12-26T11:30:05.262Z,94.30
2017-12-26T11:33:16.150Z,94.50
2017-12-26T11:36:28.675Z,94.10
2017-12-26T11:39:39.426Z,93.50
2017-12-26T11:42:49.534Z,93.50
2017-12-26T11:45:59.862Z,93.00
2017-12-26T11:49:10.144Z,93.10
2017-12-26T11:52:22.185Z,92.50
2017-12-26T11:55:32.968Z,92.40
2017-12-26T11:58:43.152Z,92.50
2017-12-26T12:01:53.895Z,92.50
2017-12-26T12:05:03.856Z,92.40
2017-12-26T12:08:14.554Z,91.70
2017-12-26T12:11:25.287Z,91.60
2017-12-26T12:14:35.130Z,91.80
2017-12-26T12:17:45.530Z,91.10
2017-12-26T12:20:55.847Z,91.50
2017-12-26T12:24:06.414Z,91.40
2017-12-26T12:27:17.546Z,91.90
2017-12-26T12:30:27.550Z,91.70
2017-12-26T12:33:37.883Z,91.60
2017-12-26T12:36:49.290Z,91.60
2017-12-26T12:40:00.031Z,91.90
2017-12-26T12:43:10.116Z,91.80
2017-12-26T12:46:19.907Z,90.90
2017-12-26T12:49:29.695Z,91.10
2017-12-26T12:52:40.482Z,91.10
2017-12-26T12:55:50.847Z,91.10
2017-12-26T12:59:01.234Z,91.00
2017-12-26T13:02:11.702Z,91.30
2017-12-26T13:05:23.082Z,91.80
2017-12-26T13:08:33.502Z,91.90
2017-12-26T13:11:43.295Z,91.10
2017-12-26T13:14:53.438Z,91.50
2017-12-26T13:18:05.012Z,90.90
2017-12-26T13:21:15.626Z,91.40
2017-12-26T13:24:26.581Z,91.40
2017-12-26T13:27:37.779Z,90.80
2017-12-26T13:30:48.014Z,90.80
2017-12-26T13:33:57.863Z,91.30
2017-12-26T13:37:07.804Z,92.30
2017-12-26T13:40:18.943Z,93.10
2017-12-26T13:43:30.253Z,92.50
2017-12-26T13:46:40.949Z,92.10
2017-12-26T13:49:50.979Z,92.10
2017-12-26T13:53:02.424Z,92.60
2017-12-26T13:56:12.264Z,92.60
2017-12-26T13:59:23.099Z,93.50
2017-12-26T14:02:33.166Z,93.50
2017-12-26T14:05:43.247Z,93.40
2017-12-26T14:08:54.157Z,94.50
2017-12-26T14:12:04.376Z,94.50
2017-12-26T14:15:14.386Z,94.70
2017-12-26T14:18:24.267Z,94.40
2017-12-26T14:21:34.407Z,94.50
2017-12-26T14:24:44.505Z,95.00
2017-12-26T14:27:54.464Z,95.30
2017-12-26T14:31:04.898Z,95.40
2017-12-26T14:34:15.607Z,95.90
2017-12-26T14:37:25.953Z,95.90
2017-12-26T14:40:35.671Z,96.00
2017-12-26T14:43:46.640Z,96.70
2017-12-26T14:46:56.782Z,96.70
2017-12-26T14:50:06.546Z,96.70
2017-12-26T14:53:16.340Z,97.20
2017-12-26T14:56:26.142Z,97.20
2017-12-26T14:59:36.925Z,96.80
2017-12-26T15:02:47.449Z,97.10
2017-12-26T15:05:58.139Z,97.20
2017-12-26T15:09:07.941Z,97.50
2017-12-26T15:12:17.703Z,97.50
2017-12-26T15:15:27.624Z,97.60
2017-12-26T15:18:38.322Z,97.50
2017-12-26T15:21:48.237Z,98.00
2017-12-26T15:24:58.783Z,98.30
2017-12-26T15:28:08.463Z,98.50
2017-12-26T15:31:18.325Z,98.40
2017-12-26T15:34:28.130Z,99.10
2017-12-26T15:37:38.922Z,99.90
2017-12-26T15:40:49.047Z,99.80
2017-12-26T15:43:59.120Z,99.90
2017-12-26T15:47:09.478Z,99.90
2017-12-26T15:50:20.134Z,99.90
2017-12-26T15:53:30.314Z,99.90
2017-12-26T15:56:40.559Z,99.90
2017-12-26T15:59:51.229Z,99.90
2017-12-26T16:03:01.968Z,99.90
2017-12-26T16:06:12.209Z,99.90
2017-12-26T16:09:22.978Z,99.90
2017-12-26T16:12:33.431Z,99.90
2017-12-26T16:15:43.156Z,99.90
2017-12-26T16:18:53.114Z,99.90
2017-12-26T16:22:03.881Z,99.90
2017-12-26T16:25:14.656Z,99.90
2017-12-26T16:28:25.405Z,99.90
2017-12-26T16:31:37.247Z,99.90
2017-12-26T16:34:48.009Z,99.90
2017-12-26T16:37:58.824Z,99.90
2017-12-26T16:41:09.520Z,99.90
2017-12-26T16:44:19.766Z,99.90
2017-12-26T16:47:30.320Z,99.90
2017-12-26T16:50:40.995Z,99.90
2017-12-26T16:53:50.957Z,99.90
2017-12-26T16:57:01.651Z,99.90
2017-12-26T17:00:11.739Z,99.90
2017-12-26T17:03:21.722Z,99.90
2017-12-26T17:06:32.280Z,99.90
2017-12-26T17:09:42.596Z,99.90
2017-12-26T17:12:53.459Z,99.90
2017-12-26T17:16:03.809Z,99.90
2017-12-26T17:19:14.129Z,99.90
2017-12-26T17:22:24.811Z,99.90
2017-12-26T17:25:35.610Z,99.90
2017-12-26T17:28:45.590Z,99.90
2017-12-26T17:31:56.405Z,99.90
2017-12-26T17:35:07.015Z,99.90
2017-12-26T17:38:18.847Z,99.90
2017-12-26T17:41:30.121Z,99.90
2017-12-26T17:44:40.184Z,99.90
2017-12-26T17:47:50.107Z,99.90
2017-12-26T17:51:00.128Z,99.90
2017-12-26T17:54:10.118Z,99.90
2017-12-26T17:57:20.268Z,99.90
2017-12-26T18:00:30.160Z,99.90
2017-12-26T18:03:40.524Z,99.90
2017-12-26T18:06:51.055Z,99.90
2017-12-26T18:10:01.853Z,99.90
2017-12-26T18:13:12.438Z,99.90
2017-12-26T18:16:23.218Z,99.90
2017-12-26T18:19:34.617Z,99.90
2017-12-26T18:22:44.736Z,99.90
2017-12-26T18:25:54.735Z,99.90
2017-12-26T18:29:06.037Z,99.90
2017-12-26T18:32:16.929Z,99.90
2017-12-26T18:35:27.518Z,99.90
2017-12-26T18:38:40.228Z,99.90
2017-12-26T18:41:51.092Z,99.90
2017-12-26T18:45:01.418Z,99.90
2017-12-26T18:48:11.518Z,99.90
2017-12-26T18:51:22.487Z,99.90
2017-12-26T18:54:32.525Z,99.90
2017-12-26T18:57:44.262Z,99.90
2017-12-26T19:00:54.676Z,99.90
2017-12-26T19:04:05.423Z,99.90
2017-12-26T19:07:16.678Z,99.90
2017-12-26T19:10:26.676Z,99.90
2017-12-26T19:13:37.500Z,99.90
2017-12-26T19:16:48.574Z,99.90
2017-12-26T19:19:59.958Z,99.90
2017-12-26T19:23:10.533Z,99.90
2017-12-26T19:26:21.528Z,99.90
2017-12-26T19:29:32.176Z,99.90
2017-12-26T19:32:42.776Z,99.90
2017-12-26T19:35:54.118Z,99.90
2017-12-26T19:39:04.883Z,99.90
2017-12-26T19:42:15.001Z,99.90
2017-12-26T19:45:24.912Z,99.90
2017-12-26T19:48:36.033Z,99.90
2017-12-26T19:51:46.251Z,99.90
2017-12-26T19:54:57.008Z,99.90
2017-12-26T19:58:07.589Z,99.90
2017-12-26T20:01:18.412Z,99.90
2017-12-26T20:04:28.703Z,99.90
2017-12-26T20:07:39.100Z,99.90
2017-12-26T20:10:49.805Z,99.90
2017-12-26T20:13:59.820Z,99.90
2017-12-26T20:17:09.677Z,99.90
2017-12-26T20:20:19.343Z,99.90
2017-12-26T20:23:29.581Z,99.90
2017-12-26T20:26:40.330Z,99.90
2017-12-26T20:29:57.226Z,99.90
2017-12-26T20:33:08.054Z,99.90
2017-12-26T20:39:45.602Z,99.90
2017-12-26T20:43:08.890Z,99.90
2017-12-26T20:49:47.804Z,99.90
2017-12-26T20:53:01.449Z,99.90
2017-12-26T20:56:11.969Z,99.90
2017-12-26T20:59:22.755Z,99.90
2017-12-26T21:02:33.535Z,99.90
2017-12-26T21:05:43.683Z,99.90
2017-12-26T21:08:54.286Z,99.90
2017-12-26T21:12:04.146Z,99.90
2017-12-26T21:15:14.272Z,99.90
2017-12-26T21:18:25.117Z,99.90
2017-12-26T21:21:35.903Z,99.90
2017-12-26T21:24:45.744Z,99.90
2017-12-26T21:27:55.551Z,99.90
2017-12-26T21:31:06.398Z,99.90
2017-12-26T21:34:17.622Z,99.90
2017-12-26T21:37:28.681Z,99.90
2017-12-26T21:40:39.725Z,99.90
2017-12-26T21:43:49.966Z,99.90
2017-12-26T21:47:00.091Z,99.90
2017-12-26T21:50:10.177Z,99.90
2017-12-26T21:53:21.782Z,99.90
2017-12-26T21:56:33.493Z,99.90
2017-12-26T21:59:44.408Z,99.90
2017-12-26T22:02:55.143Z,99.90
2017-12-26T22:06:06.265Z,99.90
2017-12-26T22:09:16.885Z,99.90
2017-12-26T22:12:27.962Z,99.90
2017-12-26T22:15:37.904Z,99.90
2017-12-26T22:18:48.732Z,99.90
2017-12-26T22:21:59.543Z,99.90
2017-12-26T22:25:09.859Z,99.90
2017-12-26T22:28:21.363Z,99.90
2017-12-26T22:31:31.341Z,99.90
2017-12-26T22:34:41.827Z,99.90
2017-12-26T22:37:53.219Z,99.90
2017-12-26T22:41:04.170Z,99.90
2017-12-26T22:44:14.315Z,99.90
2017-12-26T22:47:25.818Z,99.90
2017-12-26T22:50:36.519Z,99.90
2017-12-26T22:53:47.353Z,99.90
2017-12-26T22:56:57.714Z,99.90
2017-12-26T23:00:09.498Z,99.90
2017-12-26T23:03:20.349Z,99.90
2017-12-26T23:06:30.384Z,99.90
2017-12-26T23:09:40.861Z,99.90
2017-12-26T23:12:52.178Z,99.90
2017-12-26T23:16:07.399Z,99.90
2017-12-26T23:19:17.822Z,99.90
2017-12-26T23:22:28.418Z,99.90
2017-12-26T23:25:45.581Z,99.90
2017-12-26T23:29:01.668Z,99.90
2017-12-26T23:32:17.402Z,99.90
2017-12-26T23:35:34.050Z,99.90
2017-12-26T23:38:50.463Z,99.90
2017-12-26T23:45:44.771Z,99.90
2017-12-26T23:49:00.431Z,99.90
2017-12-26T23:52:16.034Z,99.90
2017-12-26T23:55:31.672Z,99.90
2017-12-26T23:58:47.941Z,99.90
